createdAt,value
2022-09-09T00:00:39.569Z,146436.63
2022-09-09T00:03:20.669Z,146370.84
2022-09-09T00:06:03.325Z,146361.09
2022-09-09T00:08:45.465Z,146422.00
2022-09-09T00:11:18.376Z,146419.59
2022-09-09T00:13:50.325Z,146414.72
2022-09-09T00:16:24.546Z,146443.94
2022-09-09T00:19:04.815Z,146468.28
2022-09-09T00:21:39.625Z,146448.81
2022-09-09T00:24:28.992Z,146470.75
2022-09-09T00:27:07.848Z,146469.53
2022-09-09T00:29:43.785Z,146473.16
2022-09-09T00:32:17.598Z,146475.59
2022-09-09T00:34:51.977Z,146473.16
2022-09-09T00:37:22.020Z,146446.41
2022-09-09T00:39:52.902Z,146461.00
2022-09-09T00:42:27.536Z,146412.28
2022-09-09T00:45:26.992Z,146436.63
2022-09-09T00:47:54.966Z,146453.66
2022-09-09T00:50:56.283Z,146487.81
2022-09-09T00:53:28.730Z,146436.63
2022-09-09T00:56:08.321Z,146436.63
2022-09-09T00:58:35.368Z,146407.34
2022-09-09T01:01:09.711Z,146426.88
2022-09-09T01:03:40.092Z,146436.63
2022-09-09T01:06:32.232Z,146431.75
2022-09-09T01:09:16.532Z,146445.16
2022-09-09T01:12:01.959Z,146402.50
2022-09-09T01:14:37.845Z,146407.34
2022-09-09T01:17:15.900Z,146401.28
2022-09-09T01:19:45.424Z,146403.69
2022-09-09T01:22:23.505Z,146414.72
2022-09-09T01:25:20.843Z,146379.34
2022-09-09T01:28:03.418Z,146363.50
2022-09-09T01:30:40.284Z,146308.72
2022-09-09T01:33:15.887Z,146373.28
2022-09-09T01:35:49.711Z,146346.50
2022-09-09T01:38:18.994Z,146322.13
2022-09-09T01:40:48.062Z,146305.09
2022-09-09T01:43:15.881Z,146305.09
2022-09-09T01:45:44.658Z,146346.50
2022-09-09T01:48:11.735Z,146359.88
2022-09-09T01:50:48.040Z,146361.09
2022-09-09T01:53:17.866Z,146329.44
2022-09-09T01:56:16.656Z,146342.84
2022-09-09T01:59:11.132Z,146290.47
2022-09-09T02:01:48.567Z,146375.69
2022-09-09T02:04:28.294Z,146381.78
2022-09-09T02:06:58.002Z,146336.75
2022-09-09T02:09:31.083Z,146292.91
2022-09-09T02:12:29.042Z,146346.50
2022-09-09T02:15:04.957Z,146275.84
2022-09-09T02:17:43.151Z,146317.25
2022-09-09T02:20:15.623Z,146296.56
2022-09-09T02:22:54.875Z,146346.50
2022-09-09T02:25:26.928Z,146358.63
2022-09-09T02:28:01.330Z,146391.56
2022-09-09T02:30:33.259Z,146375.69
2022-09-09T02:33:04.854Z,146402.50
2022-09-09T02:35:44.966Z,146373.28
2022-09-09T02:38:15.948Z,146409.88
2022-09-09T02:40:51.570Z,146383.03
2022-09-09T02:43:19.543Z,146451.25
2022-09-09T02:46:08.998Z,146363.50
2022-09-09T02:48:52.628Z,146465.88
2022-09-09T02:51:44.369Z,146476.81
2022-09-09T02:54:31.750Z,146469.53
2022-09-09T02:57:12.039Z,146512.16
2022-09-09T02:59:41.219Z,146490.22
2022-09-09T03:02:11.147Z,146414.72
2022-09-09T03:04:39.529Z,146480.47
2022-09-09T03:07:08.330Z,146426.88
2022-09-09T03:09:35.783Z,146458.53
2022-09-09T03:12:05.062Z,146400.03
2022-09-09T03:14:34.023Z,146485.34
2022-09-09T03:17:03.223Z,146491.41
2022-09-09T03:19:36.213Z,146495.09
2022-09-09T03:22:05.390Z,146440.28
2022-09-09T03:24:35.234Z,146492.66
2022-09-09T03:27:04.629Z,146517.00
2022-09-09T03:29:31.828Z,146475.59
2022-09-09T03:32:02.264Z,146517.00
2022-09-09T03:34:29.319Z,146487.81
2022-09-09T03:36:58.897Z,146535.28
2022-09-09T03:39:27.432Z,146543.81
2022-09-09T03:41:54.513Z,146531.63
2022-09-09T03:44:22.293Z,146485.34
2022-09-09T03:46:49.315Z,146521.88
2022-09-09T03:49:17.646Z,146537.75
2022-09-09T03:51:45.194Z,146538.94
2022-09-09T03:54:14.476Z,146507.28
2022-09-09T03:56:42.706Z,146547.47
2022-09-09T03:59:12.332Z,146531.63
2022-09-09T04:01:40.052Z,146575.50
2022-09-09T04:04:07.452Z,146569.38
2022-09-09T04:06:35.007Z,146574.28
2022-09-09T04:09:04.183Z,146599.84
2022-09-09T04:11:32.303Z,146547.47
2022-09-09T04:14:00.322Z,146575.50
2022-09-09T04:16:28.751Z,146629.13
2022-09-09T04:18:56.990Z,146613.25
2022-09-09T04:21:24.172Z,146590.09
2022-09-09T04:23:52.205Z,146603.50
2022-09-09T04:26:21.034Z,146665.66
2022-09-09T04:28:48.053Z,146694.91
2022-09-09T04:31:23.789Z,146699.78
2022-09-09T04:33:53.944Z,146724.19
2022-09-09T04:36:22.060Z,146760.75
2022-09-09T04:38:50.939Z,146715.63
2022-09-09T04:41:18.466Z,146775.41
2022-09-09T04:43:48.681Z,146719.31
2022-09-09T04:46:18.319Z,146731.50
2022-09-09T04:48:45.980Z,146785.16
2022-09-09T04:51:14.904Z,146793.69
2022-09-09T04:53:43.463Z,146758.34
2022-09-09T04:56:14.899Z,146787.56
2022-09-09T04:58:46.693Z,146775.41
2022-09-09T05:01:20.909Z,146777.81
2022-09-09T05:03:49.280Z,146785.16
2022-09-09T05:06:22.431Z,146848.56
2022-09-09T05:08:52.055Z,146840.00
2022-09-09T05:11:25.435Z,146794.91
2022-09-09T05:13:54.868Z,146791.22
2022-09-09T05:16:22.421Z,146852.16
2022-09-09T05:18:51.519Z,146855.84
2022-09-09T05:21:21.091Z,146808.31
2022-09-09T05:23:48.279Z,146819.25
2022-09-09T05:26:18.271Z,146897.28
2022-09-09T05:28:48.395Z,146888.75
2022-09-09T05:31:18.133Z,146887.53
2022-09-09T05:33:50.213Z,146899.75
2022-09-09T05:36:19.526Z,146882.66
2022-09-09T05:38:48.730Z,146905.84
2022-09-09T05:41:18.771Z,146914.38
2022-09-09T05:43:47.934Z,146916.78
2022-09-09T05:46:18.552Z,146857.06
2022-09-09T05:48:48.500Z,146954.63
2022-09-09T05:51:18.907Z,146982.69
2022-09-09T05:53:46.794Z,146963.16
2022-09-09T05:56:23.328Z,146985.09
2022-09-09T05:58:50.868Z,147008.31
2022-09-09T06:01:27.816Z,146985.09
2022-09-09T06:03:55.942Z,146940.00
2022-09-09T06:06:27.070Z,146990.00
2022-09-09T06:09:01.250Z,147031.47
2022-09-09T06:11:36.911Z,147065.66
2022-09-09T06:14:04.711Z,147087.63
2022-09-09T06:16:33.610Z,147063.19
2022-09-09T06:19:01.774Z,147107.13
2022-09-09T06:21:32.106Z,147108.34
2022-09-09T06:24:01.470Z,147099.78
2022-09-09T06:26:31.744Z,147097.38
2022-09-09T06:29:00.594Z,147143.75
2022-09-09T06:31:31.503Z,147192.56
2022-09-09T06:34:03.196Z,147229.19
2022-09-09T06:36:33.258Z,147224.28
2022-09-09T06:39:01.736Z,147297.56
2022-09-09T06:41:33.853Z,147332.94
2022-09-09T06:44:02.968Z,147343.97
2022-09-09T06:46:36.572Z,147397.66
2022-09-09T06:49:04.164Z,147500.28
2022-09-09T06:51:34.702Z,147512.53
2022-09-09T06:54:05.280Z,147558.94
2022-09-09T06:56:42.953Z,147567.50
2022-09-09T06:59:15.947Z,147499.09
2022-09-09T07:01:55.629Z,147551.59
2022-09-09T07:04:23.463Z,147536.94
2022-09-09T07:06:50.505Z,147483.13
2022-09-09T07:09:22.556Z,147478.25
2022-09-09T07:11:53.738Z,147412.34
2022-09-09T07:14:22.911Z,147385.47
2022-09-09T07:16:59.456Z,147401.31
2022-09-09T07:19:27.793Z,147461.16
2022-09-09T07:21:56.211Z,147429.41
2022-09-09T07:24:25.235Z,147453.84
2022-09-09T07:26:53.065Z,147426.97
2022-09-09T07:29:21.228Z,147435.53
2022-09-09T07:31:49.737Z,147414.75
2022-09-09T07:34:22.359Z,147424.50
2022-09-09T07:36:49.792Z,147444.09
2022-09-09T07:39:18.779Z,147514.94
2022-09-09T07:41:50.211Z,147634.66
2022-09-09T07:44:23.244Z,147698.19
2022-09-09T07:46:55.444Z,147721.44
2022-09-09T07:49:32.203Z,147741.00
2022-09-09T07:52:01.160Z,147778.91
2022-09-09T07:54:28.807Z,147854.69
2022-09-09T07:56:56.044Z,147871.81
2022-09-09T07:59:26.375Z,147855.88
2022-09-09T08:01:55.694Z,147837.53
2022-09-09T08:04:27.045Z,147862.03
2022-09-09T08:07:00.345Z,147874.22
2022-09-09T08:09:30.338Z,147974.53
2022-09-09T08:12:07.927Z,148013.69
2022-09-09T08:14:35.645Z,148005.13
2022-09-09T08:17:03.426Z,147852.25
2022-09-09T08:19:34.990Z,147734.91
2022-09-09T08:22:03.894Z,147588.22
2022-09-09T08:24:33.062Z,147651.75
2022-09-09T08:27:00.319Z,147734.91
2022-09-09T08:29:29.518Z,147756.91
2022-09-09T08:32:00.802Z,147707.97
2022-09-09T08:34:29.087Z,147700.66
2022-09-09T08:36:57.990Z,147771.56
2022-09-09T08:39:33.300Z,147862.03
2022-09-09T08:42:01.340Z,147920.72
2022-09-09T08:44:38.827Z,147873.00
2022-09-09T08:47:46.464Z,147886.47
2022-09-09T08:50:16.613Z,147887.69
2022-09-09T08:52:52.998Z,147886.47
2022-09-09T08:55:44.367Z,148016.09
2022-09-09T08:58:16.612Z,147983.09
2022-09-09T09:01:03.414Z,148045.50
2022-09-09T09:03:53.716Z,147896.25
2022-09-09T09:06:37.175Z,147968.44
2022-09-09T09:09:31.350Z,147992.88
2022-09-09T09:12:02.034Z,147999.03
2022-09-09T09:14:36.517Z,148052.78
2022-09-09T09:17:10.761Z,148030.81
2022-09-09T09:19:41.102Z,147906.00
2022-09-09T09:22:39.141Z,147851.00
2022-09-09T09:25:31.665Z,147825.34
2022-09-09T09:28:18.358Z,147865.72
2022-09-09T09:31:04.342Z,147887.69
2022-09-09T09:33:36.233Z,147881.56
2022-09-09T09:36:04.233Z,147925.59
2022-09-09T09:41:33.626Z,148180.06
2022-09-09T09:44:02.472Z,148149.47
2022-09-09T09:46:30.217Z,148139.66
2022-09-09T09:49:10.503Z,148153.16
2022-09-09T09:51:38.663Z,148210.69
2022-09-09T09:54:30.401Z,148194.75
2022-09-09T09:57:12.783Z,148214.34
2022-09-09T09:59:42.165Z,148133.53
2022-09-09T10:02:19.179Z,148153.16
2022-09-09T10:04:49.891Z,148154.41
2022-09-09T10:07:22.113Z,148158.03
2022-09-09T10:09:54.980Z,148282.84
2022-09-09T10:12:37.002Z,148407.75
2022-09-09T10:15:35.512Z,148407.75
2022-09-09T10:18:21.201Z,148481.22
2022-09-09T10:21:27.955Z,148419.97
2022-09-09T10:24:06.670Z,148333.03
2022-09-09T10:26:50.576Z,148282.84
2022-09-09T10:29:17.903Z,148407.75
2022-09-09T10:31:53.738Z,148427.34
2022-09-09T10:34:38.710Z,148349.00
2022-09-09T10:37:17.970Z,148435.91
2022-09-09T10:39:45.042Z,148363.69
2022-09-09T10:42:17.658Z,148346.53
2022-09-09T10:44:47.516Z,148510.59
2022-09-09T10:47:27.881Z,148407.75
2022-09-09T10:50:12.357Z,148435.91
2022-09-09T10:53:00.779Z,148418.75
2022-09-09T10:55:38.259Z,148319.56
2022-09-09T10:58:08.355Z,148224.13
2022-09-09T11:00:41.212Z,148072.41
2022-09-09T11:03:20.378Z,148052.78
2022-09-09T11:05:53.536Z,148079.72
2022-09-09T11:08:24.139Z,148116.41
2022-09-09T11:10:53.439Z,148205.78
2022-09-09T11:13:32.681Z,148285.31
2022-09-09T11:16:06.075Z,148334.28
2022-09-09T11:18:40.947Z,148331.81
2022-09-09T11:21:24.834Z,148355.09
2022-09-09T11:24:05.851Z,148415.09
2022-09-09T11:26:40.484Z,148461.59
2022-09-09T11:29:35.170Z,148424.88
2022-09-09T11:32:35.493Z,148481.22
2022-09-09T11:35:27.316Z,148397.97
2022-09-09T11:38:12.305Z,148395.50
2022-09-09T11:40:40.154Z,148344.06
2022-09-09T11:43:19.573Z,148366.16
2022-09-09T11:45:58.710Z,148344.06
2022-09-09T11:48:37.506Z,148361.25
2022-09-09T11:51:12.134Z,148444.50
2022-09-09T11:54:06.044Z,148418.75
2022-09-09T11:56:45.225Z,148422.44
2022-09-09T11:59:25.648Z,148396.72
2022-09-09T12:01:57.976Z,148402.88
2022-09-09T12:04:25.534Z,148399.19
2022-09-09T12:07:03.478Z,148404.09
2022-09-09T12:09:41.307Z,148383.25
2022-09-09T12:12:23.610Z,148344.06
2022-09-09T12:15:01.710Z,148347.78
2022-09-09T12:17:34.214Z,148290.19
2022-09-09T12:20:14.553Z,148477.53
2022-09-09T12:22:54.900Z,148532.63
2022-09-09T12:25:27.822Z,148498.31
2022-09-09T12:28:15.864Z,148552.25
2022-09-09T12:30:57.264Z,148522.84
2022-09-09T12:33:24.785Z,148570.63
2022-09-09T12:36:00.413Z,148647.78
2022-09-09T12:38:35.727Z,148536.31
2022-09-09T12:41:02.796Z,148465.28
2022-09-09T12:43:29.967Z,148440.81
2022-09-09T12:46:09.781Z,148448.13
2022-09-09T12:48:42.924Z,148404.09
2022-09-09T12:51:26.136Z,148473.84
2022-09-09T12:53:53.609Z,148515.47
2022-09-09T12:56:23.748Z,148540.00
2022-09-09T12:58:52.975Z,148437.13
2022-09-09T13:01:26.590Z,148446.91
2022-09-09T13:03:54.140Z,148342.84
2022-09-09T13:06:29.691Z,148498.31
2022-09-09T13:09:01.877Z,148590.22
2022-09-09T13:11:32.310Z,148596.38
2022-09-09T13:14:00.239Z,148479.97
2022-09-09T13:16:32.479Z,148444.50
2022-09-09T13:19:02.573Z,148390.63
2022-09-09T13:21:35.364Z,148331.81
2022-09-09T13:24:05.741Z,148350.22
2022-09-09T13:26:32.903Z,148408.97
2022-09-09T13:29:18.839Z,148336.69
2022-09-09T13:31:46.486Z,148466.50
2022-09-09T13:34:34.518Z,148434.69
2022-09-09T13:37:06.806Z,148388.16
2022-09-09T13:39:37.339Z,148455.50
2022-09-09T13:42:05.450Z,148454.28
2022-09-09T13:44:39.826Z,148549.84
2022-09-09T13:47:10.556Z,148486.13
2022-09-09T13:49:37.798Z,148478.75
2022-09-09T13:52:09.849Z,148405.28
2022-09-09T13:54:36.892Z,148336.69
2022-09-09T13:57:05.603Z,148402.88
2022-09-09T13:59:54.304Z,148342.84
2022-09-09T14:02:20.357Z,148517.94
2022-09-09T14:04:48.239Z,148437.13
2022-09-09T14:07:17.348Z,148478.75
2022-09-09T14:09:44.612Z,148515.47
2022-09-09T14:12:16.217Z,148466.50
2022-09-09T14:14:43.675Z,148418.75
2022-09-09T14:17:10.732Z,148397.97
2022-09-09T14:19:40.708Z,148408.97
2022-09-09T14:22:07.719Z,148303.66
2022-09-09T14:24:35.063Z,148243.69
2022-09-09T14:27:02.182Z,148301.19
2022-09-09T14:29:29.241Z,148307.34
2022-09-09T14:31:56.249Z,148324.50
2022-09-09T14:34:23.233Z,148313.44
2022-09-09T14:36:50.540Z,148319.56
2022-09-09T14:39:17.537Z,148262.06
2022-09-09T14:41:44.517Z,148204.53
2022-09-09T14:44:11.507Z,148235.13
2022-09-09T14:46:38.987Z,148202.09
2022-09-09T14:49:05.968Z,148128.66
2022-09-09T14:51:32.990Z,148139.66
2022-09-09T14:54:00.518Z,148082.19
2022-09-09T14:56:30.528Z,148028.34
2022-09-09T14:58:59.642Z,147899.91
2022-09-09T15:01:29.362Z,147793.56
2022-09-09T15:04:05.643Z,147700.66
2022-09-09T15:06:35.287Z,147632.22
2022-09-09T15:09:02.633Z,147412.34
2022-09-09T15:11:38.632Z,147536.94
2022-09-09T15:14:07.848Z,147544.25
2022-09-09T15:16:35.607Z,147563.81
2022-09-09T15:19:03.937Z,147541.81
2022-09-09T15:21:33.990Z,147561.34
2022-09-09T15:24:01.352Z,147620.00
2022-09-09T15:26:29.302Z,147584.56
2022-09-09T15:28:56.377Z,147712.84
2022-09-09T15:31:25.230Z,147782.53
2022-09-09T15:33:54.848Z,147693.31
2022-09-09T15:36:24.074Z,147899.91
2022-09-09T15:38:52.448Z,147948.88
2022-09-09T15:41:21.356Z,147847.38
2022-09-09T15:43:51.157Z,147862.03
2022-09-09T15:46:18.142Z,147776.44
2022-09-09T15:48:47.272Z,147776.44
2022-09-09T15:51:37.996Z,147715.31
2022-09-09T15:54:03.063Z,147830.25
2022-09-09T15:56:33.517Z,148109.09
2022-09-09T15:59:01.024Z,148124.97
2022-09-09T16:01:28.793Z,147910.91
2022-09-09T16:03:56.196Z,147881.56
2022-09-09T16:06:25.084Z,147876.69
2022-09-09T16:08:53.814Z,147874.22
2022-09-09T16:11:32.740Z,147827.78
2022-09-09T16:14:00.366Z,147781.34
2022-09-09T16:16:30.416Z,147776.44
2022-09-09T16:19:00.088Z,147659.13
2022-09-09T16:21:30.187Z,147759.31
2022-09-09T16:24:00.385Z,148129.88
2022-09-09T16:26:28.723Z,148049.16
2022-09-09T16:28:55.995Z,147846.13
2022-09-09T16:31:25.010Z,147752.03
2022-09-09T16:33:52.920Z,147693.31
2022-09-09T16:36:26.192Z,147534.47
2022-09-09T16:38:58.415Z,147588.22
2022-09-09T16:41:27.759Z,147524.72
2022-09-09T16:44:00.282Z,147541.81
2022-09-09T16:46:29.196Z,147513.75
2022-09-09T16:49:01.222Z,147507.59
2022-09-09T16:51:40.288Z,147492.94
2022-09-09T16:54:08.710Z,147456.28
2022-09-09T16:56:39.368Z,147457.53
2022-09-09T16:59:09.412Z,147450.19
2022-09-09T17:01:39.197Z,147407.47
2022-09-09T17:04:09.503Z,147356.13
2022-09-09T17:06:39.854Z,147429.41
2022-09-09T17:09:09.681Z,147429.41
2022-09-09T17:11:38.314Z,147302.47
2022-09-09T17:14:06.727Z,147241.34
2022-09-09T17:16:37.125Z,147392.75
2022-09-09T17:19:04.663Z,147260.97
2022-09-09T17:21:33.193Z,147392.75
2022-09-09T17:24:00.705Z,147373.25
2022-09-09T17:26:30.967Z,147339.06
2022-09-09T17:28:59.876Z,147345.16
2022-09-09T17:31:29.351Z,147324.41
2022-09-09T17:33:56.840Z,147292.69
2022-09-09T17:36:27.092Z,147313.44
2022-09-09T17:38:54.674Z,147302.47
2022-09-09T17:41:40.535Z,147304.88
2022-09-09T17:46:43.171Z,147265.84
2022-09-09T17:49:15.706Z,147232.81
2022-09-09T17:51:44.229Z,147225.50
2022-09-09T17:54:13.943Z,147188.91
2022-09-09T17:56:42.131Z,147180.34
2022-09-09T17:59:12.059Z,147226.72
2022-09-09T18:01:41.840Z,147185.22
2022-09-09T18:04:10.485Z,147094.91
2022-09-09T18:06:43.884Z,147198.66
2022-09-09T18:09:13.778Z,147223.03
2022-09-09T18:11:45.125Z,147230.38
2022-09-09T18:14:15.535Z,147165.72
2022-09-09T18:16:42.779Z,147221.84
2022-09-09T18:19:15.071Z,147214.50
2022-09-09T18:21:43.059Z,147206.00
2022-09-09T18:24:12.162Z,147226.72
2022-09-09T18:26:40.606Z,147174.25
2022-09-09T18:29:12.779Z,147160.84
2022-09-09T18:31:42.330Z,147165.72
2022-09-09T18:34:12.643Z,147103.47
2022-09-09T18:36:45.063Z,147136.41
2022-09-09T18:39:14.999Z,147105.94
2022-09-09T18:41:48.174Z,147152.28
2022-09-09T18:44:18.529Z,147132.78
2022-09-09T18:46:46.594Z,147102.25
2022-09-09T18:49:15.236Z,147080.28
2022-09-09T18:51:44.137Z,147099.78
2022-09-09T18:54:18.471Z,147070.53
2022-09-09T18:56:46.173Z,147099.78
2022-09-09T18:59:19.032Z,147074.22
2022-09-09T19:01:48.192Z,147073.00
2022-09-09T19:04:15.326Z,146986.34
2022-09-09T19:06:45.007Z,147068.06
2022-09-09T19:09:13.606Z,147083.97
2022-09-09T19:11:41.168Z,146960.72
2022-09-09T19:14:11.395Z,147016.84
2022-09-09T19:16:40.517Z,147043.69
2022-09-09T19:19:12.398Z,147046.16
2022-09-09T19:21:40.424Z,147016.84
2022-09-09T19:24:12.216Z,147020.50
2022-09-09T19:26:44.826Z,147016.84
2022-09-09T19:29:15.113Z,147009.56
2022-09-09T19:31:55.365Z,147048.56
2022-09-09T19:34:31.191Z,147041.28
2022-09-09T19:36:58.194Z,147047.38
2022-09-09T19:39:25.197Z,146979.00
2022-09-09T19:41:52.219Z,147051.03
2022-09-09T19:44:19.205Z,147068.06
2022-09-09T19:46:47.210Z,147080.28
2022-09-09T19:49:15.476Z,147053.44
2022-09-09T19:51:43.346Z,146982.69
2022-09-09T19:54:13.965Z,147036.41
2022-09-09T19:56:42.299Z,147016.84
2022-09-09T19:59:11.680Z,147035.16
2022-09-09T20:01:46.519Z,147052.25
2022-09-09T20:04:14.557Z,147008.31
2022-09-09T20:06:44.276Z,147011.97
2022-09-09T20:09:17.152Z,146987.59
2022-09-09T20:11:45.731Z,146977.78
2022-09-09T20:14:13.466Z,146991.25
2022-09-09T20:16:41.335Z,146986.34
2022-09-09T20:19:11.515Z,147031.47
2022-09-09T20:21:47.305Z,147011.97
2022-09-09T20:24:18.643Z,147065.66
2022-09-09T20:26:48.179Z,147087.63
2022-09-09T20:29:18.468Z,147094.91
2022-09-09T20:31:46.381Z,147099.78
2022-09-09T20:34:16.481Z,147088.84
2022-09-09T20:36:43.663Z,147064.44
2022-09-09T20:39:20.856Z,147077.88
2022-09-09T20:41:48.589Z,147131.53
2022-09-09T20:44:18.755Z,147090.03
2022-09-09T20:46:48.243Z,147115.69
2022-09-09T20:49:20.419Z,147119.34
2022-09-09T20:51:49.662Z,147119.34
2022-09-09T20:54:19.830Z,147138.84
2022-09-09T20:56:48.026Z,147125.44
2022-09-09T20:59:21.394Z,147114.47
2022-09-09T21:01:49.092Z,147104.66
2022-09-09T21:04:18.629Z,147075.41
2022-09-09T21:06:46.692Z,147042.47
2022-09-09T21:09:14.587Z,146999.81
2022-09-09T21:11:42.115Z,147058.31
2022-09-09T21:14:10.045Z,147068.06
2022-09-09T21:16:37.080Z,147051.03
2022-09-09T21:19:04.508Z,147016.84
2022-09-09T21:21:31.555Z,147009.56
2022-09-09T21:24:00.370Z,147029.06
2022-09-09T21:26:27.603Z,147022.97
2022-09-09T21:28:55.786Z,147002.22
2022-09-09T21:31:27.972Z,147021.72
2022-09-09T21:33:58.392Z,147043.69
2022-09-09T21:36:28.110Z,146924.13
2022-09-09T21:38:56.283Z,146997.34
2022-09-09T21:41:23.391Z,146941.22
2022-09-09T21:43:54.064Z,147031.47
2022-09-09T21:46:23.104Z,147021.72
2022-09-09T21:48:50.712Z,147070.53
2022-09-09T21:51:18.143Z,147025.41
2022-09-09T21:53:45.504Z,147024.19
2022-09-09T21:56:15.747Z,147027.84
2022-09-09T21:58:43.134Z,147070.53
2022-09-09T22:01:12.651Z,147046.16
2022-09-09T22:03:40.365Z,147024.19
2022-09-09T22:06:08.779Z,146977.78
2022-09-09T22:08:36.490Z,146997.34
2022-09-09T22:11:13.891Z,147071.75
2022-09-09T22:13:42.501Z,147060.78
2022-09-09T22:16:12.250Z,147021.72
2022-09-09T22:18:40.578Z,146987.59
2022-09-09T22:21:12.886Z,146960.72
2022-09-09T22:23:39.912Z,146955.84
2022-09-09T22:26:07.477Z,146996.13
2022-09-09T22:28:35.767Z,146981.47
2022-09-09T22:31:02.921Z,146958.28
2022-09-09T22:33:30.104Z,146949.75
2022-09-09T22:35:57.196Z,146924.13
2022-09-09T22:38:24.181Z,146929.00
2022-09-09T22:40:51.801Z,146948.50
2022-09-09T22:43:21.479Z,146958.28
2022-09-09T22:45:49.958Z,146972.91
2022-09-09T22:48:17.271Z,146985.09
2022-09-09T22:50:45.045Z,146997.34
2022-09-09T22:53:17.273Z,147016.84
2022-09-09T22:55:55.631Z,147024.19
2022-09-09T22:58:23.041Z,147019.31
2022-09-09T23:00:51.208Z,147024.19
2022-09-09T23:03:18.975Z,147009.56
2022-09-09T23:05:54.995Z,147042.47
2022-09-09T23:08:23.183Z,147054.69
2022-09-09T23:10:50.454Z,147003.44
2022-09-09T23:13:17.456Z,147031.47
2022-09-09T23:15:46.933Z,146957.03
2022-09-09T23:18:14.623Z,147038.81
2022-09-09T23:20:43.074Z,146997.34
2022-09-09T23:23:13.191Z,146965.59
2022-09-09T23:25:40.243Z,146964.38
2022-09-09T23:28:07.251Z,146958.28
2022-09-09T23:30:34.274Z,146999.81
2022-09-09T23:33:01.289Z,146992.47
2022-09-09T23:35:28.396Z,146972.91
2022-09-09T23:37:55.406Z,146954.63
2022-09-09T23:40:23.031Z,146971.66
2022-09-09T23:42:50.359Z,146953.38
2022-09-09T23:45:17.938Z,146960.72
2022-09-09T23:47:45.631Z,147025.41
2022-09-09T23:50:13.086Z,147009.56
2022-09-09T23:52:43.434Z,147055.91
2022-09-09T23:55:10.764Z,147024.19
2022-09-09T23:57:37.831Z,147025.41
